Arklow Vale — PCZV — position and weather

sailwx.info

Track history (hours):
 
Tides and Currents Weather Stations Pressure Air Temp Water Temp Dewpoint Dewpoint Depression Visibility Wind Speed Wind Dir Waves Ship Positions

Arklow Vale

Last reported at 2018-Feb-17 15:36 UTC. Time now 2018-Feb-17 23:55 UTC.
Position N 43°39' W 003°49'.

Length 87 m; draft 6.3 m.

Type: Cargo ship. MMSI: 244750645.

Date/timePositionNaut miles runAvg speedWind from/ knotsBaromVisibWave heightAir tempDewpointWater temp
2018-Feb-17 15:36N 43°39' W 003°49'110.7
2018-Feb-17 15:28N 43°37' W 003°49'5 0.2
2018-Feb-16 11:47N 43°33' W 003°48'412.7
2018-Feb-16 11:30N 43°36' W 003°50'49511.6
2018-Feb-14 16:45N 50°55' W 009°28'311.0
2018-Feb-14 16:29N 50°58' W 009°31'511.2
2018-Feb-14 16:00N 51°02' W 009°36'511.0
2018-Feb-14 15:31N 51°06' W 009°42'510.7
2018-Feb-14 15:00N 51°10' W 009°48'510.7
2018-Feb-14 14:30N 51°14' W 009°54'511.0
2018-Feb-14 14:01N 51°18' W 009°59'510.4
2018-Feb-14 13:30N 51°21' W 010°05'510.4
2018-Feb-14 13:00N 51°25' W 010°11'5 9.9
2018-Feb-14 12:30N 51°29' W 010°16'5 9.4
2018-Feb-14 12:00N 51°33' W 010°20'5 8.8
2018-Feb-14 11:28N 51°37' W 010°22'4 5.8
2018-Feb-14 10:46N 51°38' W 010°29'1 1.6
2018-Feb-14 10:23N 51°38' W 010°28'4 9.3
2018-Feb-14 09:59N 51°41' W 010°32'19 7.8
2018-Feb-14 07:30N 51°59' W 010°43'10 3.0
2018-Feb-14 04:14N 52°09' W 010°45'8 1.5
2018-Feb-13 23:00N 52°12' W 010°34'3 4.5
2018-Feb-13 22:16N 52°14' W 010°30'10 8.1
2018-Feb-13 21:03N 52°20' W 010°17'0 8.3
2018-Feb-13 21:00N 52°20' W 010°16'13 9.4
2018-Feb-13 19:37N 52°27' W 009°58'  
2018-Feb-10 12:14N 52°13' W 010°31'410.4
2018-Feb-10 11:51N 52°10' W 010°36'26 8.5
2018-Feb-10 08:49N 51°45' W 010°41'9 8.4
2018-Feb-10 07:44N 51°37' W 010°32'2 8.2
2018-Feb-10 07:30N 51°36' W 010°30'4 7.8
2018-Feb-10 07:00N 51°33' W 010°26'4 7.6
2018-Feb-10 06:30N 51°31' W 010°21'4 7.2
2018-Feb-10 06:00N 51°30' W 010°16'4 7.2
2018-Feb-10 05:31N 51°28' W 010°10'4 7.4
2018-Feb-10 05:00N 51°27' W 010°05'4 7.3
2018-Feb-10 04:30N 51°25' W 009°59'4 7.5
2018-Feb-10 04:00N 51°24' W 009°54'4 7.6
2018-Feb-10 03:30N 51°23' W 009°48'4 8.1
2018-Feb-10 03:00N 51°21' W 009°42'4 8.2
2018-Feb-10 02:30N 51°20' W 009°36'4 8.9
2018-Feb-10 02:00N 51°21' W 009°29'4 8.8
2018-Feb-10 01:31N 51°21' W 009°22'5 9.2
2018-Feb-10 01:00N 51°21' W 009°15'5 9.3
2018-Feb-10 00:30N 51°21' W 009°07'5 9.3
2018-Feb-10 00:00N 51°21' W 008°60'5 9.4
2018-Feb-09 23:30N 51°21' W 008°52'5 9.6
2018-Feb-09 23:00N 51°21' W 008°45'9 9.7
2018-Feb-09 22:02N 51°21' W 008°30'1510.1
2018-Feb-09 20:31N 51°21' W 008°05'105 8.4
2018-Feb-09 08:00N 51°18' W 005°17'14 6.9
2018-Feb-09 06:00N 51°20' W 004°55'4 7.3
2018-Feb-09 05:30N 51°21' W 004°49'4710.4
2018-Feb-09 01:00N 51°21' W 003°34'23 9.3
2018-Feb-08 22:30N 51°27' W 002°58'9 9.3
2018-Feb-08 21:30N 51°30' W 002°44'1 0.1
2018-Feb-08 01:29N 51°30' W 002°43'0 0.0
2018-Feb-08 00:59N 51°30' W 002°43'0 0.0
2018-Feb-08 00:29N 51°30' W 002°43'0 0.0
2018-Feb-07 23:59N 51°30' W 002°43'0 0.0
2018-Feb-07 23:29N 51°30' W 002°43'0 0.0
2018-Feb-07 22:59N 51°30' W 002°43'0 0.0
2018-Feb-07 22:29N 51°30' W 002°43'0 0.0
2018-Feb-07 21:59N 51°30' W 002°43'0 0.8
2018-Feb-07 21:31N 51°30' W 002°44'  
Track history (hours):
 
Tides and Currents Weather Stations Pressure Air Temp Water Temp Dewpoint Dewpoint Depression Visibility Wind Speed Wind Dir Waves Ship Positions

Arklow Vale

Last reported at 2018-Feb-17 15:36 UTC. Time now 2018-Feb-17 23:55 UTC.
Position N 43°39' W 003°49'.

Length 87 m; draft 6.3 m.

Type: Cargo ship. MMSI: 244750645.

Date/timePositionNaut miles runAvg speedWind from/ knotsBaromVisibWave heightAir tempDewpointWater temp
2018-Feb-17 15:36N 43°39' W 003°49'110.7
2018-Feb-17 15:28N 43°37' W 003°49'5 0.2
2018-Feb-16 11:47N 43°33' W 003°48'412.7
2018-Feb-16 11:30N 43°36' W 003°50'49511.6
2018-Feb-14 16:45N 50°55' W 009°28'311.0
2018-Feb-14 16:29N 50°58' W 009°31'511.2
2018-Feb-14 16:00N 51°02' W 009°36'511.0
2018-Feb-14 15:31N 51°06' W 009°42'510.7
2018-Feb-14 15:00N 51°10' W 009°48'510.7
2018-Feb-14 14:30N 51°14' W 009°54'511.0
2018-Feb-14 14:01N 51°18' W 009°59'510.4
2018-Feb-14 13:30N 51°21' W 010°05'510.4
2018-Feb-14 13:00N 51°25' W 010°11'5 9.9
2018-Feb-14 12:30N 51°29' W 010°16'5 9.4
2018-Feb-14 12:00N 51°33' W 010°20'5 8.8
2018-Feb-14 11:28N 51°37' W 010°22'4 5.8
2018-Feb-14 10:46N 51°38' W 010°29'1 1.6
2018-Feb-14 10:23N 51°38' W 010°28'4 9.3
2018-Feb-14 09:59N 51°41' W 010°32'19 7.8
2018-Feb-14 07:30N 51°59' W 010°43'10 3.0
2018-Feb-14 04:14N 52°09' W 010°45'8 1.5
2018-Feb-13 23:00N 52°12' W 010°34'3 4.5
2018-Feb-13 22:16N 52°14' W 010°30'10 8.1
2018-Feb-13 21:03N 52°20' W 010°17'0 8.3
2018-Feb-13 21:00N 52°20' W 010°16'13 9.4
2018-Feb-13 19:37N 52°27' W 009°58'  
2018-Feb-10 12:14N 52°13' W 010°31'410.4
2018-Feb-10 11:51N 52°10' W 010°36'26 8.5
2018-Feb-10 08:49N 51°45' W 010°41'9 8.4
2018-Feb-10 07:44N 51°37' W 010°32'2 8.2
2018-Feb-10 07:30N 51°36' W 010°30'4 7.8
2018-Feb-10 07:00N 51°33' W 010°26'4 7.6
2018-Feb-10 06:30N 51°31' W 010°21'4 7.2
2018-Feb-10 06:00N 51°30' W 010°16'4 7.2
2018-Feb-10 05:31N 51°28' W 010°10'4 7.4
2018-Feb-10 05:00N 51°27' W 010°05'4 7.3
2018-Feb-10 04:30N 51°25' W 009°59'4 7.5
2018-Feb-10 04:00N 51°24' W 009°54'4 7.6
2018-Feb-10 03:30N 51°23' W 009°48'4 8.1
2018-Feb-10 03:00N 51°21' W 009°42'4 8.2
2018-Feb-10 02:30N 51°20' W 009°36'4 8.9
2018-Feb-10 02:00N 51°21' W 009°29'4 8.8
2018-Feb-10 01:31N 51°21' W 009°22'5 9.2
2018-Feb-10 01:00N 51°21' W 009°15'5 9.3
2018-Feb-10 00:30N 51°21' W 009°07'5 9.3
2018-Feb-10 00:00N 51°21' W 008°60'5 9.4
2018-Feb-09 23:30N 51°21' W 008°52'5 9.6
2018-Feb-09 23:00N 51°21' W 008°45'9 9.7
2018-Feb-09 22:02N 51°21' W 008°30'1510.1
2018-Feb-09 20:31N 51°21' W 008°05'105 8.4
2018-Feb-09 08:00N 51°18' W 005°17'14 6.9
2018-Feb-09 06:00N 51°20' W 004°55'4 7.3
2018-Feb-09 05:30N 51°21' W 004°49'4710.4
2018-Feb-09 01:00N 51°21' W 003°34'23 9.3
2018-Feb-08 22:30N 51°27' W 002°58'9 9.3
2018-Feb-08 21:30N 51°30' W 002°44'1 0.1
2018-Feb-08 01:29N 51°30' W 002°43'0 0.0
2018-Feb-08 00:59N 51°30' W 002°43'0 0.0
2018-Feb-08 00:29N 51°30' W 002°43'0 0.0
2018-Feb-07 23:59N 51°30' W 002°43'0 0.0
2018-Feb-07 23:29N 51°30' W 002°43'0 0.0
2018-Feb-07 22:59N 51°30' W 002°43'0 0.0
2018-Feb-07 22:29N 51°30' W 002°43'0 0.0
2018-Feb-07 21:59N 51°30' W 002°43'0 0.8
2018-Feb-07 21:31N 51°30' W 002°44'  

Dump ship's entire track history